createdAt,value
2022-10-02T00:00:22.622Z,23.14
2022-10-02T00:00:54.187Z,23.17
2022-10-02T00:01:58.259Z,23.15
2022-10-02T00:02:37.320Z,23.17
2022-10-02T00:03:18.672Z,23.13
2022-10-02T00:03:50.350Z,23.13
2022-10-02T00:04:27.130Z,23.18
2022-10-02T00:05:03.104Z,23.15
2022-10-02T00:05:38.427Z,23.17
2022-10-02T00:06:11.793Z,23.20
2022-10-02T00:06:45.540Z,23.20
2022-10-02T00:07:17.134Z,23.23
2022-10-02T00:08:00.844Z,23.23
2022-10-02T00:08:33.682Z,23.23
2022-10-02T00:09:05.225Z,23.15
2022-10-02T00:09:45.011Z,23.13
2022-10-02T00:10:16.542Z,23.09
2022-10-02T00:10:50.967Z,23.05
2022-10-02T00:11:23.142Z,23.07
2022-10-02T00:11:55.969Z,23.02
2022-10-02T00:12:27.697Z,23.10
2022-10-02T00:13:00.833Z,23.09
2022-10-02T00:13:37.869Z,23.15
2022-10-02T00:14:09.723Z,23.12
2022-10-02T00:14:41.400Z,23.13
2022-10-02T00:15:13.904Z,23.09
2022-10-02T00:15:45.414Z,23.08
2022-10-02T00:16:33.784Z,23.08
2022-10-02T00:17:05.579Z,23.15
2022-10-02T00:17:38.231Z,23.16
2022-10-02T00:18:11.646Z,23.18
2022-10-02T00:18:43.120Z,23.21
2022-10-02T00:19:18.220Z,23.24
2022-10-02T00:19:55.718Z,23.26
2022-10-02T00:20:29.757Z,23.27
2022-10-02T00:21:06.128Z,23.29
2022-10-02T00:21:43.346Z,23.29
2022-10-02T00:22:18.778Z,23.24
2022-10-02T00:22:53.183Z,23.22
2022-10-02T00:23:30.282Z,23.21
2022-10-02T00:24:02.139Z,23.20
2022-10-02T00:24:42.857Z,23.14
2022-10-02T00:25:23.070Z,23.15
2022-10-02T00:25:57.292Z,23.10
2022-10-02T00:26:31.496Z,23.13
2022-10-02T00:27:05.746Z,23.11
2022-10-02T00:27:45.916Z,23.13
2022-10-02T00:28:23.129Z,23.17
2022-10-02T00:29:00.682Z,23.17
2022-10-02T00:29:37.825Z,23.19
2022-10-02T00:30:12.932Z,23.12
2022-10-02T00:31:02.900Z,23.21
2022-10-02T00:31:34.353Z,23.24
2022-10-02T00:32:12.596Z,23.26
2022-10-02T00:32:50.650Z,23.25
2022-10-02T00:33:28.945Z,23.24
2022-10-02T00:34:03.942Z,23.25
2022-10-02T00:34:44.317Z,23.25
2022-10-02T00:35:29.182Z,23.24
2022-10-02T00:36:09.238Z,23.30
2022-10-02T00:36:59.467Z,23.28
2022-10-02T00:37:33.670Z,23.23
2022-10-02T00:38:25.368Z,23.24
2022-10-02T00:39:02.752Z,23.25
2022-10-02T00:39:40.086Z,23.27
2022-10-02T00:40:29.615Z,23.26
2022-10-02T00:41:04.710Z,23.22
2022-10-02T00:41:42.360Z,23.25
2022-10-02T00:42:13.830Z,23.25
2022-10-02T00:42:45.258Z,23.18
2022-10-02T00:43:34.973Z,23.19
2022-10-02T00:44:13.949Z,23.24
2022-10-02T00:44:45.440Z,23.27
2022-10-02T00:45:23.993Z,23.25
2022-10-02T00:45:55.534Z,23.25
2022-10-02T00:46:32.981Z,23.27
2022-10-02T00:47:14.457Z,23.17
2022-10-02T00:47:49.029Z,23.19
2022-10-02T00:48:42.135Z,23.23
2022-10-02T00:49:19.545Z,23.18
2022-10-02T00:49:53.798Z,23.20
2022-10-02T00:50:25.293Z,23.20
2022-10-02T00:51:00.602Z,23.17
2022-10-02T00:51:38.030Z,23.20
2022-10-02T00:52:28.604Z,23.21
2022-10-02T00:53:08.340Z,23.23
2022-10-02T00:53:54.637Z,23.21
2022-10-02T00:54:43.483Z,23.25
2022-10-02T00:55:15.016Z,23.24
2022-10-02T00:55:55.287Z,23.23
2022-10-02T00:56:29.442Z,23.25
2022-10-02T00:57:19.319Z,23.24
2022-10-02T00:58:14.330Z,23.26
2022-10-02T00:58:54.607Z,23.19
2022-10-02T00:59:31.575Z,23.20
2022-10-02T01:00:05.878Z,23.23
2022-10-02T01:00:37.505Z,23.23
2022-10-02T01:01:16.452Z,23.25
2022-10-02T01:02:02.002Z,23.21
2022-10-02T01:02:36.233Z,23.23
2022-10-02T01:03:28.400Z,23.22
2022-10-02T01:03:59.923Z,23.25
2022-10-02T01:04:34.767Z,23.23
2022-10-02T01:05:07.476Z,23.23
2022-10-02T01:05:39.007Z,23.20
2022-10-02T01:06:10.553Z,23.19
2022-10-02T01:06:42.029Z,23.20
2022-10-02T01:07:13.588Z,23.21
2022-10-02T01:07:45.301Z,23.20
2022-10-02T01:08:16.947Z,23.18
2022-10-02T01:08:48.427Z,23.17
2022-10-02T01:09:19.943Z,23.15
2022-10-02T01:09:51.398Z,23.18
2022-10-02T01:10:23.319Z,23.20
2022-10-02T01:10:54.967Z,23.18
2022-10-02T01:11:26.438Z,23.21
2022-10-02T01:11:58.179Z,23.22
2022-10-02T01:12:29.703Z,23.19
2022-10-02T01:13:01.256Z,23.17
2022-10-02T01:13:32.825Z,23.24
2022-10-02T01:14:04.315Z,23.21
2022-10-02T01:14:36.300Z,23.20
2022-10-02T01:15:14.760Z,23.24
2022-10-02T01:15:52.459Z,23.15
2022-10-02T01:16:24.014Z,23.17
2022-10-02T01:16:55.517Z,23.18
2022-10-02T01:17:28.270Z,23.18
2022-10-02T01:17:59.788Z,23.20
2022-10-02T01:18:31.314Z,23.20
2022-10-02T01:19:02.769Z,23.20
2022-10-02T01:19:40.401Z,23.18
2022-10-02T01:20:15.171Z,23.16
2022-10-02T01:20:47.312Z,23.13
2022-10-02T01:21:21.401Z,23.15
2022-10-02T01:21:53.513Z,23.11
2022-10-02T01:23:11.606Z,23.16
2022-10-02T01:23:48.342Z,23.17
2022-10-02T01:24:21.677Z,23.18
2022-10-02T01:24:53.386Z,23.16
2022-10-02T01:25:24.670Z,23.18
2022-10-02T01:25:56.385Z,23.18
2022-10-02T01:26:27.792Z,23.21
2022-10-02T01:26:59.144Z,23.19
2022-10-02T01:27:30.602Z,23.16
2022-10-02T01:28:02.087Z,23.16
2022-10-02T01:28:33.459Z,23.15
2022-10-02T01:29:04.822Z,23.19
2022-10-02T01:29:36.221Z,23.18
2022-10-02T01:30:08.685Z,23.16
2022-10-02T01:30:40.930Z,23.15
2022-10-02T01:31:12.288Z,23.16
2022-10-02T01:31:43.731Z,23.16
2022-10-02T01:32:15.213Z,23.14
2022-10-02T01:32:50.523Z,23.17
2022-10-02T01:33:21.977Z,23.17
2022-10-02T01:33:53.405Z,23.18
2022-10-02T01:34:24.779Z,23.14
2022-10-02T01:34:56.212Z,23.16
2022-10-02T01:35:31.243Z,23.17
2022-10-02T01:36:02.636Z,23.19
2022-10-02T01:36:34.338Z,23.22
2022-10-02T01:37:06.279Z,23.19
2022-10-02T01:37:38.309Z,23.20
2022-10-02T01:38:10.908Z,23.23
2022-10-02T01:38:42.358Z,23.23
2022-10-02T01:39:13.707Z,23.20
2022-10-02T01:39:45.071Z,23.20
2022-10-02T01:40:22.757Z,23.16
2022-10-02T01:40:54.149Z,23.17
2022-10-02T01:41:25.517Z,23.16
2022-10-02T01:41:56.948Z,23.16
2022-10-02T01:42:28.350Z,23.17
2022-10-02T01:43:03.603Z,23.16
2022-10-02T01:43:35.434Z,23.21
2022-10-02T01:44:06.862Z,23.19
2022-10-02T01:44:38.263Z,23.17
2022-10-02T01:45:10.006Z,23.19
2022-10-02T01:45:51.729Z,23.21
2022-10-02T01:46:23.131Z,23.20
2022-10-02T01:47:10.751Z,23.21
2022-10-02T01:47:50.740Z,23.21
2022-10-02T01:48:40.953Z,23.22
2022-10-02T01:49:17.291Z,23.24
2022-10-02T01:49:55.818Z,23.24
2022-10-02T01:50:32.772Z,23.21
2022-10-02T01:51:06.750Z,23.23
2022-10-02T01:51:56.602Z,23.26
2022-10-02T01:52:34.387Z,23.23
2022-10-02T01:53:05.985Z,23.24
2022-10-02T01:53:40.198Z,23.27
2022-10-02T01:54:17.405Z,23.25
2022-10-02T01:54:51.937Z,23.22
2022-10-02T01:55:38.305Z,23.19
2022-10-02T01:56:12.261Z,23.19
2022-10-02T01:57:02.247Z,23.21
2022-10-02T01:57:36.623Z,23.23
2022-10-02T01:58:07.978Z,23.22
2022-10-02T01:58:43.315Z,23.19
2022-10-02T01:59:34.913Z,23.21
2022-10-02T02:00:07.132Z,23.18
2022-10-02T02:00:42.438Z,23.15
2022-10-02T02:01:25.941Z,23.12
2022-10-02T02:02:20.150Z,23.18
2022-10-02T02:02:51.537Z,23.18
2022-10-02T02:03:43.141Z,23.17
2022-10-02T02:04:43.495Z,23.15
2022-10-02T02:05:17.712Z,23.15
2022-10-02T02:05:54.843Z,23.15
2022-10-02T02:06:55.591Z,23.18
2022-10-02T02:07:38.852Z,23.15
2022-10-02T02:08:19.743Z,23.10
2022-10-02T02:09:06.008Z,23.14
2022-10-02T02:09:45.646Z,23.17
2022-10-02T02:10:18.574Z,23.16
2022-10-02T02:10:52.831Z,23.17
2022-10-02T02:11:24.192Z,23.19
2022-10-02T02:11:58.297Z,23.17
2022-10-02T02:12:29.667Z,23.19
2022-10-02T02:13:05.937Z,23.19
2022-10-02T02:13:55.716Z,23.22
2022-10-02T02:14:30.426Z,23.21
2022-10-02T02:15:03.412Z,23.17
2022-10-02T02:15:36.832Z,23.16
2022-10-02T02:16:10.202Z,23.17
2022-10-02T02:16:42.803Z,23.18
2022-10-02T02:17:20.563Z,23.17
2022-10-02T02:17:58.357Z,23.20
2022-10-02T02:18:48.198Z,23.17
2022-10-02T02:19:33.724Z,23.19
2022-10-02T02:20:06.263Z,23.23
2022-10-02T02:20:39.055Z,23.23
2022-10-02T02:21:12.918Z,23.20
2022-10-02T02:21:56.280Z,23.21
2022-10-02T02:22:30.579Z,23.19
2022-10-02T02:23:06.452Z,23.18
2022-10-02T02:23:37.923Z,23.19
2022-10-02T02:24:10.247Z,23.17
2022-10-02T02:24:43.468Z,23.17
2022-10-02T02:25:19.405Z,23.13
2022-10-02T02:25:51.225Z,23.14
2022-10-02T02:26:22.650Z,23.18
2022-10-02T02:26:55.276Z,23.17
2022-10-02T02:27:27.520Z,23.16
2022-10-02T02:28:00.068Z,23.17
2022-10-02T02:28:31.539Z,23.17
2022-10-02T02:29:04.723Z,23.15
2022-10-02T02:29:36.389Z,23.16
2022-10-02T02:30:08.368Z,23.19
2022-10-02T02:30:40.788Z,23.20
2022-10-02T02:31:12.547Z,23.19
2022-10-02T02:31:46.006Z,23.23
2022-10-02T02:32:18.238Z,23.23
2022-10-02T02:33:09.875Z,23.23
2022-10-02T02:33:42.875Z,23.18
2022-10-02T02:34:15.237Z,23.16
2022-10-02T02:34:48.151Z,23.18
2022-10-02T02:35:24.470Z,23.20
2022-10-02T02:35:56.530Z,23.23
2022-10-02T02:36:31.415Z,23.21
2022-10-02T02:37:04.783Z,23.20
2022-10-02T02:37:36.285Z,23.26
2022-10-02T02:38:09.435Z,23.25
2022-10-02T02:38:42.318Z,23.23
2022-10-02T02:39:18.369Z,23.19
2022-10-02T02:39:51.199Z,23.20
2022-10-02T02:40:25.885Z,23.21
2022-10-02T02:40:57.639Z,23.24
2022-10-02T02:41:30.713Z,23.17
2022-10-02T02:42:02.514Z,23.15
2022-10-02T02:42:35.740Z,23.18
2022-10-02T02:43:15.003Z,23.20
2022-10-02T02:43:47.186Z,23.21
2022-10-02T02:44:25.712Z,23.18
2022-10-02T02:45:17.456Z,23.20
2022-10-02T02:45:52.857Z,23.21
2022-10-02T02:46:25.661Z,23.22
2022-10-02T02:47:01.867Z,23.20
2022-10-02T02:47:35.599Z,23.23
2022-10-02T02:48:39.190Z,23.22
2022-10-02T02:49:10.638Z,23.20
2022-10-02T02:49:47.692Z,23.24
2022-10-02T02:50:23.022Z,23.23
2022-10-02T02:50:55.835Z,23.18
2022-10-02T02:51:28.392Z,23.18
2022-10-02T02:51:59.839Z,23.20
2022-10-02T02:52:32.894Z,23.18
2022-10-02T02:53:12.972Z,23.18
2022-10-02T02:53:46.390Z,23.18
2022-10-02T02:54:19.718Z,23.19
2022-10-02T02:54:53.162Z,23.19
2022-10-02T02:55:29.148Z,23.19
2022-10-02T02:56:04.496Z,23.15
2022-10-02T02:56:36.169Z,23.18
2022-10-02T02:57:07.841Z,23.14
2022-10-02T02:57:41.558Z,23.12
2022-10-02T02:58:20.592Z,23.19
2022-10-02T02:58:54.056Z,23.11
2022-10-02T02:59:26.262Z,23.16
2022-10-02T02:59:57.686Z,23.18
2022-10-02T03:00:29.112Z,23.16
2022-10-02T03:01:00.641Z,23.20
2022-10-02T03:01:32.176Z,23.18
2022-10-02T03:02:03.805Z,23.23
2022-10-02T03:02:35.350Z,23.23
2022-10-02T03:03:06.796Z,23.22
2022-10-02T03:03:38.296Z,23.19
2022-10-02T03:04:11.057Z,23.20
2022-10-02T03:04:42.411Z,23.16
2022-10-02T03:05:14.254Z,23.18
2022-10-02T03:05:47.585Z,23.18
2022-10-02T03:06:18.981Z,23.14
2022-10-02T03:06:51.486Z,23.16
2022-10-02T03:07:22.997Z,23.20
2022-10-02T03:07:56.221Z,23.19
2022-10-02T03:08:28.160Z,23.20
2022-10-02T03:08:59.610Z,23.18
2022-10-02T03:09:31.032Z,23.23
2022-10-02T03:10:15.122Z,23.20
2022-10-02T03:10:49.225Z,23.22
2022-10-02T03:11:23.401Z,23.20
2022-10-02T03:12:00.866Z,23.21
2022-10-02T03:12:35.955Z,23.23
2022-10-02T03:13:39.801Z,23.21
2022-10-02T03:14:23.262Z,23.23
2022-10-02T03:15:03.698Z,23.21
2022-10-02T03:15:41.066Z,23.23
2022-10-02T03:16:22.908Z,23.19
2022-10-02T03:16:57.134Z,23.18
2022-10-02T03:18:00.627Z,23.19
2022-10-02T03:18:35.632Z,23.16
2022-10-02T03:19:12.854Z,23.19
2022-10-02T03:19:51.446Z,23.21
2022-10-02T03:20:28.764Z,23.19
2022-10-02T03:21:02.588Z,23.25
2022-10-02T03:21:35.668Z,23.21
2022-10-02T03:22:10.051Z,23.22
2022-10-02T03:22:59.841Z,23.18
2022-10-02T03:23:44.480Z,23.19
2022-10-02T03:24:17.739Z,23.13
2022-10-02T03:24:52.774Z,23.16
2022-10-02T03:25:25.093Z,23.16
2022-10-02T03:26:03.480Z,23.18
2022-10-02T03:26:36.937Z,23.20
2022-10-02T03:27:09.378Z,23.20
2022-10-02T03:28:10.252Z,23.19
2022-10-02T03:28:55.449Z,23.20
2022-10-02T03:29:47.352Z,23.19
2022-10-02T03:30:18.875Z,23.19
2022-10-02T03:30:50.259Z,23.21
2022-10-02T03:31:21.800Z,23.20
2022-10-02T03:31:53.300Z,23.19
2022-10-02T03:32:24.843Z,23.19
2022-10-02T03:32:56.253Z,23.20
2022-10-02T03:33:27.656Z,23.21
2022-10-02T03:33:59.278Z,23.23
2022-10-02T03:34:31.904Z,23.19
2022-10-02T03:35:04.066Z,23.22
2022-10-02T03:35:35.495Z,23.24
2022-10-02T03:36:06.931Z,23.22
2022-10-02T03:36:38.775Z,23.24
2022-10-02T03:37:10.587Z,23.25
2022-10-02T03:37:42.447Z,23.22
2022-10-02T03:38:13.788Z,23.15
2022-10-02T03:38:50.069Z,23.16
2022-10-02T03:39:28.472Z,23.18
2022-10-02T03:40:02.751Z,23.18
2022-10-02T03:40:34.195Z,23.18
2022-10-02T03:41:05.717Z,23.19
2022-10-02T03:41:37.150Z,23.17
2022-10-02T03:42:09.249Z,23.20
2022-10-02T03:42:40.652Z,23.16
2022-10-02T03:43:18.097Z,23.17
2022-10-02T03:43:49.488Z,23.20
2022-10-02T03:44:21.023Z,23.23
2022-10-02T03:44:52.417Z,23.19
2022-10-02T03:45:49.554Z,23.15
2022-10-02T03:46:15.845Z,23.19
2022-10-02T03:46:47.231Z,23.21
2022-10-02T03:47:18.687Z,23.25
2022-10-02T03:47:50.127Z,23.25
2022-10-02T03:48:21.537Z,23.24
2022-10-02T03:48:52.976Z,23.17
2022-10-02T03:49:24.410Z,23.22
2022-10-02T03:49:55.804Z,23.20
2022-10-02T03:50:27.269Z,23.16
2022-10-02T03:50:58.714Z,23.14
2022-10-02T03:51:30.628Z,23.17
2022-10-02T03:52:02.172Z,23.19
2022-10-02T03:52:33.595Z,23.21
2022-10-02T03:53:15.099Z,23.23
2022-10-02T03:53:46.580Z,23.24
2022-10-02T03:54:18.867Z,23.25
2022-10-02T03:54:56.955Z,23.24
2022-10-02T03:55:30.363Z,23.21
2022-10-02T03:56:03.545Z,23.19
2022-10-02T03:56:44.178Z,23.23
2022-10-02T03:57:18.190Z,23.24
2022-10-02T03:57:49.567Z,23.23
2022-10-02T03:58:21.097Z,23.23
2022-10-02T03:58:52.793Z,23.25
2022-10-02T03:59:33.128Z,23.24
2022-10-02T04:00:18.012Z,23.26
2022-10-02T04:00:52.358Z,23.24
2022-10-02T04:01:25.160Z,23.26
2022-10-02T04:01:56.671Z,23.26
2022-10-02T04:02:37.091Z,23.24
2022-10-02T04:03:12.888Z,23.25
2022-10-02T04:03:49.121Z,23.25
2022-10-02T04:04:24.218Z,23.28
2022-10-02T04:05:09.708Z,23.28
2022-10-02T04:05:51.799Z,23.24
2022-10-02T04:06:36.114Z,23.21
2022-10-02T04:07:07.858Z,23.20
2022-10-02T04:07:40.157Z,23.23
2022-10-02T04:08:15.397Z,23.21
2022-10-02T04:09:06.848Z,23.19
2022-10-02T04:09:46.448Z,23.18
2022-10-02T04:10:17.847Z,23.24
2022-10-02T04:10:50.921Z,23.20
2022-10-02T04:11:31.177Z,23.23
2022-10-02T04:12:08.350Z,23.20
2022-10-02T04:12:41.563Z,23.21
2022-10-02T04:13:31.732Z,23.24
2022-10-02T04:14:07.554Z,23.23
2022-10-02T04:14:44.893Z,23.24
2022-10-02T04:15:25.555Z,23.26
2022-10-02T04:16:08.457Z,23.23
2022-10-02T04:16:40.922Z,23.23
2022-10-02T04:17:13.113Z,23.21
2022-10-02T04:17:47.832Z,23.23
2022-10-02T04:18:29.465Z,23.20
2022-10-02T04:19:00.782Z,23.19
2022-10-02T04:19:35.210Z,23.24
2022-10-02T04:20:07.782Z,23.22
2022-10-02T04:20:43.851Z,23.20
2022-10-02T04:21:21.004Z,23.23
2022-10-02T04:21:52.326Z,23.18
2022-10-02T04:22:23.727Z,23.18
2022-10-02T04:23:00.727Z,23.17
2022-10-02T04:23:39.579Z,23.17
2022-10-02T04:24:10.997Z,23.17
2022-10-02T04:24:45.253Z,23.22
2022-10-02T04:25:17.988Z,23.20
2022-10-02T04:25:50.848Z,23.22
2022-10-02T04:26:24.507Z,23.23
2022-10-02T04:26:55.935Z,23.23
2022-10-02T04:27:43.906Z,23.20
2022-10-02T04:28:15.778Z,23.24
2022-10-02T04:28:49.105Z,23.25
2022-10-02T04:29:21.857Z,23.20
2022-10-02T04:29:57.648Z,23.21
2022-10-02T04:30:29.080Z,23.21
2022-10-02T04:31:00.592Z,23.25
2022-10-02T04:31:32.092Z,23.24
2022-10-02T04:32:14.273Z,23.24
2022-10-02T04:32:45.746Z,23.26
2022-10-02T04:33:18.026Z,23.26
2022-10-02T04:33:49.355Z,23.26
2022-10-02T04:34:20.728Z,23.25
2022-10-02T04:34:52.280Z,23.22
2022-10-02T04:35:29.684Z,23.21
2022-10-02T04:36:01.118Z,23.26
2022-10-02T04:36:37.353Z,23.24
2022-10-02T04:37:27.635Z,23.26
2022-10-02T04:38:07.225Z,23.23
2022-10-02T04:38:38.608Z,23.21
2022-10-02T04:39:15.941Z,23.24
2022-10-02T04:39:59.325Z,23.21
2022-10-02T04:40:37.550Z,23.23
2022-10-02T04:41:24.033Z,23.20
2022-10-02T04:42:01.226Z,23.20
2022-10-02T04:42:41.511Z,23.18
2022-10-02T04:43:31.777Z,23.23
2022-10-02T04:44:10.738Z,23.23
2022-10-02T04:44:52.075Z,23.23
2022-10-02T04:45:32.820Z,23.26
2022-10-02T04:46:10.279Z,23.23
2022-10-02T04:46:44.437Z,23.21
2022-10-02T04:47:24.652Z,23.24
2022-10-02T04:48:15.037Z,23.19
2022-10-02T04:48:46.420Z,23.25
2022-10-02T04:49:36.754Z,23.22
2022-10-02T04:50:31.139Z,23.21
2022-10-02T04:51:06.483Z,23.23
2022-10-02T04:51:47.010Z,23.24
2022-10-02T04:52:27.587Z,23.23
2022-10-02T04:53:17.370Z,23.21
2022-10-02T04:54:02.445Z,23.20
2022-10-02T04:54:52.126Z,23.23
2022-10-02T04:55:41.809Z,23.23
2022-10-02T04:56:19.184Z,23.24
2022-10-02T04:57:09.152Z,23.23
2022-10-02T04:57:55.768Z,23.21
2022-10-02T04:58:42.450Z,23.24
2022-10-02T04:59:45.968Z,23.25
2022-10-02T05:00:20.696Z,23.25
2022-10-02T05:00:58.781Z,23.24
2022-10-02T05:01:49.717Z,23.19
2022-10-02T05:02:24.028Z,23.23
2022-10-02T05:03:13.396Z,23.23
2022-10-02T05:04:04.316Z,23.16
2022-10-02T05:04:38.567Z,23.21
2022-10-02T05:05:09.921Z,23.23
2022-10-02T05:06:00.101Z,23.20
2022-10-02T05:06:36.018Z,23.20
2022-10-02T05:07:10.693Z,23.20
2022-10-02T05:08:00.112Z,23.21
2022-10-02T05:08:34.220Z,23.19
2022-10-02T05:09:28.278Z,23.19
2022-10-02T05:10:15.235Z,23.23
2022-10-02T05:10:49.437Z,23.17
2022-10-02T05:11:30.015Z,23.19
2022-10-02T05:12:07.264Z,23.16
2022-10-02T05:12:44.611Z,23.20
2022-10-02T05:13:25.021Z,23.19
2022-10-02T05:14:05.722Z,23.17
2022-10-02T05:14:47.241Z,23.14
2022-10-02T05:15:21.703Z,23.17
2022-10-02T05:16:11.578Z,23.17
2022-10-02T05:16:50.127Z,23.17
2022-10-02T05:17:39.965Z,23.13
2022-10-02T05:18:18.130Z,23.18
2022-10-02T05:19:08.294Z,23.20
2022-10-02T05:19:39.641Z,23.20
2022-10-02T05:20:10.996Z,23.20
2022-10-02T05:20:54.542Z,23.23
2022-10-02T05:21:30.041Z,23.23
2022-10-02T05:22:10.711Z,23.15
2022-10-02T05:23:00.507Z,23.17
2022-10-02T05:23:31.918Z,23.17
2022-10-02T05:24:03.370Z,23.16
2022-10-02T05:24:49.823Z,23.16
2022-10-02T05:25:40.029Z,23.12
2022-10-02T05:26:15.977Z,23.14
2022-10-02T05:26:50.687Z,23.14
2022-10-02T05:27:31.145Z,23.17
2022-10-02T05:28:24.971Z,23.16
2022-10-02T05:29:02.058Z,23.20
2022-10-02T05:29:45.361Z,23.15
2022-10-02T05:30:17.345Z,23.17
2022-10-02T05:30:54.054Z,23.17
2022-10-02T05:31:28.316Z,23.11
2022-10-02T05:32:02.808Z,23.13
2022-10-02T05:32:39.955Z,23.09
2022-10-02T05:33:23.677Z,23.08
2022-10-02T05:34:13.244Z,23.12
2022-10-02T05:34:47.533Z,23.15
2022-10-02T05:35:18.984Z,23.18
2022-10-02T05:36:03.590Z,23.19
2022-10-02T05:36:44.020Z,23.21
2022-10-02T05:37:18.113Z,23.19
2022-10-02T05:38:03.651Z,23.16
2022-10-02T05:38:56.676Z,23.11
2022-10-02T05:39:28.813Z,23.12
2022-10-02T05:40:03.797Z,23.12
2022-10-02T05:40:45.272Z,23.14
2022-10-02T05:41:21.898Z,23.18
2022-10-02T05:41:56.174Z,23.20
2022-10-02T05:42:31.174Z,23.19
2022-10-02T05:43:02.554Z,23.20
2022-10-02T05:43:47.826Z,23.20
2022-10-02T05:44:35.957Z,23.16
2022-10-02T05:45:24.474Z,23.20
2022-10-02T05:45:56.812Z,23.21
2022-10-02T05:46:32.726Z,23.20
2022-10-02T05:47:10.404Z,23.22
2022-10-02T05:47:42.737Z,23.24
2022-10-02T05:48:24.190Z,23.20
2022-10-02T05:48:57.388Z,23.21
2022-10-02T05:49:35.092Z,23.19
2022-10-02T05:50:12.386Z,23.21
2022-10-02T05:50:43.829Z,23.21
2022-10-02T05:51:16.708Z,23.22
2022-10-02T05:51:53.343Z,23.17
2022-10-02T05:52:57.090Z,23.18
2022-10-02T05:53:38.679Z,23.19
2022-10-02T05:54:14.742Z,23.19
2022-10-02T05:55:15.413Z,23.18
2022-10-02T05:55:51.712Z,23.18
2022-10-02T05:56:24.547Z,23.17
2022-10-02T05:57:06.908Z,23.19
2022-10-02T05:57:39.822Z,23.17
2022-10-02T05:58:19.672Z,23.19
2022-10-02T05:58:56.221Z,23.19
2022-10-02T05:59:50.892Z,23.18
2022-10-02T06:00:41.558Z,23.23
2022-10-02T06:01:14.619Z,23.17
2022-10-02T06:01:46.709Z,23.18
2022-10-02T06:02:24.314Z,23.17
2022-10-02T06:03:00.198Z,23.16
2022-10-02T06:03:36.305Z,23.19
2022-10-02T06:04:15.267Z,23.20
2022-10-02T06:04:49.069Z,23.21
2022-10-02T06:05:30.225Z,23.24
2022-10-02T06:06:01.720Z,23.25
2022-10-02T06:06:33.179Z,23.23
2022-10-02T06:07:06.608Z,23.18
2022-10-02T06:07:38.233Z,23.18
2022-10-02T06:08:10.915Z,23.22
2022-10-02T06:08:48.015Z,23.23
2022-10-02T06:09:29.726Z,23.20
2022-10-02T06:10:03.191Z,23.20
2022-10-02T06:10:36.103Z,23.21
2022-10-02T06:11:11.984Z,23.17
2022-10-02T06:12:03.682Z,23.16
2022-10-02T06:12:35.804Z,23.18
2022-10-02T06:13:45.813Z,23.23
2022-10-02T06:14:20.279Z,23.26
2022-10-02T06:15:00.291Z,23.20
2022-10-02T06:15:39.983Z,23.20
2022-10-02T06:16:18.213Z,23.17
2022-10-02T06:16:49.669Z,23.20
2022-10-02T06:17:21.159Z,23.19
2022-10-02T06:18:00.050Z,23.21
2022-10-02T06:18:31.690Z,23.20
2022-10-02T06:19:04.499Z,23.18
2022-10-02T06:19:50.468Z,23.21
2022-10-02T06:20:24.579Z,23.19
2022-10-02T06:20:56.595Z,23.20
2022-10-02T06:21:27.942Z,23.21
2022-10-02T06:22:00.494Z,23.20
2022-10-02T06:22:33.650Z,23.25
2022-10-02T06:23:10.786Z,23.21
2022-10-02T06:23:43.453Z,23.23
2022-10-02T06:24:25.514Z,23.21
2022-10-02T06:24:58.287Z,23.25
2022-10-02T06:25:37.286Z,23.22
2022-10-02T06:26:13.059Z,23.25
2022-10-02T06:26:55.991Z,23.25
2022-10-02T06:27:35.329Z,23.21
2022-10-02T06:28:11.656Z,23.24
2022-10-02T06:28:44.689Z,23.25
2022-10-02T06:29:26.264Z,23.26
2022-10-02T06:29:59.995Z,23.25
2022-10-02T06:30:31.964Z,23.26
2022-10-02T06:31:05.093Z,23.25
2022-10-02T06:31:51.442Z,23.26
2022-10-02T06:32:25.929Z,23.21
2022-10-02T06:33:01.493Z,23.22
2022-10-02T06:33:32.941Z,23.21
2022-10-02T06:34:04.312Z,23.21
2022-10-02T06:34:35.683Z,23.20
2022-10-02T06:35:11.016Z,23.19
2022-10-02T06:35:54.286Z,23.24
2022-10-02T06:36:44.471Z,23.25
2022-10-02T06:37:22.015Z,23.23
2022-10-02T06:37:56.038Z,23.24
2022-10-02T06:38:30.109Z,23.23
2022-10-02T06:39:20.382Z,23.24
2022-10-02T06:40:01.605Z,23.24
2022-10-02T06:40:51.543Z,23.25
2022-10-02T06:41:22.939Z,23.23
2022-10-02T06:42:00.448Z,23.25
2022-10-02T06:42:38.983Z,23.26
2022-10-02T06:43:19.302Z,23.27
2022-10-02T06:43:53.408Z,23.25
2022-10-02T06:44:30.733Z,23.27
2022-10-02T06:45:09.218Z,23.25
2022-10-02T06:45:46.563Z,23.25
2022-10-02T06:46:17.931Z,23.27
2022-10-02T06:46:51.417Z,23.25
2022-10-02T06:47:41.730Z,23.19
2022-10-02T06:48:23.225Z,23.23
2022-10-02T06:48:56.464Z,23.20
2022-10-02T06:49:36.985Z,23.21
2022-10-02T06:50:17.265Z,23.23
2022-10-02T06:50:54.119Z,23.23
2022-10-02T06:51:33.748Z,23.26
2022-10-02T06:52:14.339Z,23.23
2022-10-02T06:52:57.567Z,23.16
2022-10-02T06:53:28.933Z,23.20
2022-10-02T06:54:09.466Z,23.23
2022-10-02T06:54:50.250Z,23.19
2022-10-02T06:55:31.944Z,23.21
2022-10-02T06:56:22.112Z,23.20
2022-10-02T06:57:02.586Z,23.20
2022-10-02T06:57:52.585Z,23.20
2022-10-02T06:58:42.806Z,23.24
2022-10-02T06:59:18.339Z,23.21
2022-10-02T07:00:03.223Z,23.24
2022-10-02T07:00:36.704Z,23.25
2022-10-02T07:01:08.134Z,23.21
2022-10-02T07:01:59.620Z,23.21
2022-10-02T07:02:57.067Z,23.18
2022-10-02T07:03:31.236Z,23.20
2022-10-02T07:04:02.649Z,23.19
2022-10-02T07:04:40.260Z,23.21
2022-10-02T07:05:30.365Z,23.23
2022-10-02T07:06:01.739Z,23.22
2022-10-02T07:06:41.557Z,23.23
2022-10-02T07:07:26.379Z,23.23
2022-10-02T07:08:13.138Z,23.28
2022-10-02T07:09:03.094Z,23.27
2022-10-02T07:09:53.510Z,23.21
2022-10-02T07:10:42.396Z,23.23
2022-10-02T07:11:16.569Z,23.21
2022-10-02T07:11:50.605Z,23.25
2022-10-02T07:12:44.362Z,23.25
2022-10-02T07:13:15.794Z,23.26
2022-10-02T07:13:47.148Z,23.21
2022-10-02T07:14:28.902Z,23.18
2022-10-02T07:15:03.273Z,23.23
2022-10-02T07:15:50.946Z,23.23
2022-10-02T07:16:26.758Z,23.24
2022-10-02T07:17:04.338Z,23.24
2022-10-02T07:17:58.657Z,23.21
2022-10-02T07:18:30.094Z,23.21
2022-10-02T07:19:01.498Z,23.20
2022-10-02T07:19:43.567Z,23.22
2022-10-02T07:20:33.356Z,23.20
2022-10-02T07:21:04.657Z,23.20
2022-10-02T07:21:38.782Z,23.21
2022-10-02T07:22:39.626Z,23.21
2022-10-02T07:23:11.690Z,23.24
2022-10-02T07:23:43.061Z,23.25
2022-10-02T07:24:29.858Z,23.24
2022-10-02T07:25:19.864Z,23.24
2022-10-02T07:26:06.583Z,23.18
2022-10-02T07:26:47.753Z,23.20
2022-10-02T07:27:23.537Z,23.17
2022-10-02T07:28:13.710Z,23.18
2022-10-02T07:28:54.508Z,23.23
2022-10-02T07:29:25.856Z,23.22
2022-10-02T07:30:06.389Z,23.22
2022-10-02T07:30:49.965Z,23.23
2022-10-02T07:31:26.289Z,23.24
2022-10-02T07:32:16.139Z,23.26
2022-10-02T07:32:53.470Z,23.25
2022-10-02T07:33:34.837Z,23.18
2022-10-02T07:34:06.226Z,23.20
2022-10-02T07:34:44.368Z,23.18
2022-10-02T07:35:33.982Z,23.20
2022-10-02T07:36:05.361Z,23.14
2022-10-02T07:36:49.092Z,23.18
2022-10-02T07:37:24.069Z,23.18
2022-10-02T07:37:58.200Z,23.19
2022-10-02T07:38:47.627Z,23.24
2022-10-02T07:39:19.129Z,23.18
2022-10-02T07:40:08.957Z,23.20
2022-10-02T07:40:47.925Z,23.23
2022-10-02T07:41:37.424Z,23.23
2022-10-02T07:42:37.962Z,23.20
2022-10-02T07:43:27.914Z,23.25
2022-10-02T07:44:03.099Z,23.25
2022-10-02T07:44:34.460Z,23.21
2022-10-02T07:45:18.865Z,23.23
2022-10-02T07:45:50.426Z,23.25
2022-10-02T07:46:40.639Z,23.23
2022-10-02T07:47:27.407Z,23.20
2022-10-02T07:48:08.141Z,23.21
2022-10-02T07:48:52.082Z,23.23
2022-10-02T07:49:37.206Z,23.23
2022-10-02T07:50:08.550Z,23.26
2022-10-02T07:50:46.121Z,23.26
2022-10-02T07:51:23.767Z,23.24
2022-10-02T07:51:58.929Z,23.25
2022-10-02T07:52:36.565Z,23.26
2022-10-02T07:53:19.753Z,23.27
2022-10-02T07:53:51.612Z,23.28
2022-10-02T07:54:41.620Z,23.25
2022-10-02T07:55:16.685Z,23.27
2022-10-02T07:55:53.947Z,23.28
2022-10-02T07:56:25.352Z,23.29
2022-10-02T07:56:57.779Z,23.29
2022-10-02T07:57:37.926Z,23.26
2022-10-02T07:58:38.289Z,23.25
2022-10-02T07:59:11.017Z,23.24
2022-10-02T07:59:42.505Z,23.25
2022-10-02T08:00:14.734Z,23.25
2022-10-02T08:00:49.952Z,23.24
2022-10-02T08:01:22.940Z,23.27
2022-10-02T08:01:54.441Z,23.26
2022-10-02T08:02:30.546Z,23.26